createdAt,value
2018-11-10T00:00:22.771Z,17.80
2018-11-10T00:02:52.809Z,18.47
2018-11-10T00:05:23.596Z,19.60
2018-11-10T00:07:53.213Z,19.70
2018-11-10T00:10:22.986Z,20.10
2018-11-10T00:12:52.714Z,18.60
2018-11-10T00:15:22.282Z,19.10
2018-11-10T00:17:51.954Z,20.67
2018-11-10T00:20:22.312Z,20.63
2018-11-10T00:22:51.979Z,18.77
2018-11-10T00:25:21.496Z,17.63
2018-11-10T00:27:51.149Z,18.17
2018-11-10T00:30:20.822Z,16.93
2018-11-10T00:32:50.629Z,19.03
2018-11-10T00:35:20.294Z,18.27
2018-11-10T00:37:50.003Z,17.23
2018-11-10T00:40:20.148Z,19.40
2018-11-10T00:42:49.720Z,19.57
2018-11-10T00:45:19.612Z,19.50
2018-11-10T00:47:49.125Z,17.97
2018-11-10T00:50:18.727Z,18.30
2018-11-10T00:52:48.276Z,19.30
2018-11-10T00:55:17.929Z,19.20
2018-11-10T00:57:47.486Z,18.77
2018-11-10T01:00:17.039Z,18.80
2018-11-10T01:02:46.678Z,18.63
2018-11-10T01:05:16.389Z,19.80
2018-11-10T01:07:46.057Z,18.10
2018-11-10T01:10:15.860Z,17.80
2018-11-10T01:12:45.533Z,19.60
2018-11-10T01:15:16.133Z,17.87
2018-11-10T01:17:45.964Z,19.37
2018-11-10T01:20:15.857Z,18.60
2018-11-10T01:22:46.188Z,18.60
2018-11-10T01:25:15.765Z,18.63
2018-11-10T01:27:45.479Z,18.43
2018-11-10T01:30:16.351Z,18.70
2018-11-10T01:32:46.590Z,18.90
2018-11-10T01:35:16.413Z,18.30
2018-11-10T01:37:46.078Z,18.90
2018-11-10T01:40:15.809Z,20.07
2018-11-10T01:42:45.676Z,20.50
2018-11-10T01:45:17.922Z,20.57
2018-11-10T01:47:47.906Z,18.10
2018-11-10T01:50:17.365Z,20.57
2018-11-10T01:52:47.020Z,19.67
2018-11-10T01:55:16.606Z,17.93
2018-11-10T01:57:46.281Z,18.03
2018-11-10T02:00:18.307Z,17.87
2018-11-10T02:02:48.526Z,17.10
2018-11-10T02:05:18.424Z,18.50
2018-11-10T02:07:47.880Z,18.60
2018-11-10T02:10:17.629Z,17.90
2018-11-10T02:12:47.064Z,20.30
2018-11-10T02:15:17.387Z,19.57
2018-11-10T02:17:46.948Z,19.10
2018-11-10T02:20:16.713Z,17.43
2018-11-10T02:22:46.213Z,18.70
2018-11-10T02:25:15.901Z,16.67
2018-11-10T02:27:45.604Z,19.30
2018-11-10T02:30:15.318Z,18.37
2018-11-10T02:32:44.948Z,18.83
2018-11-10T02:35:14.512Z,21.17
2018-11-10T02:37:44.077Z,17.07
2018-11-10T02:40:15.034Z,17.17
2018-11-10T02:42:45.144Z,17.73
2018-11-10T02:45:15.457Z,18.03
2018-11-10T02:47:45.669Z,17.23
2018-11-10T02:50:15.287Z,16.60
2018-11-10T02:52:44.933Z,17.90
2018-11-10T02:55:14.469Z,17.30
2018-11-10T02:57:44.185Z,15.60
2018-11-10T03:00:14.731Z,17.40
2018-11-10T03:02:44.416Z,17.10
2018-11-10T03:05:14.068Z,16.43
2018-11-10T03:07:43.648Z,18.23
2018-11-10T03:10:13.347Z,17.07
2018-11-10T03:12:42.885Z,19.50
2018-11-10T03:15:13.138Z,17.87
2018-11-10T03:17:42.788Z,17.83
2018-11-10T03:20:15.867Z,17.33
2018-11-10T03:22:45.924Z,18.27
2018-11-10T03:25:15.497Z,16.77
2018-11-10T03:27:45.432Z,18.60
2018-11-10T03:30:15.121Z,16.77
2018-11-10T03:32:44.630Z,16.80
2018-11-10T03:35:14.148Z,17.30
2018-11-10T03:37:43.916Z,18.13
2018-11-10T03:40:13.837Z,18.60
2018-11-10T03:42:43.578Z,17.90
2018-11-10T03:45:13.403Z,15.67
2018-11-10T03:47:43.093Z,17.20
2018-11-10T03:50:13.109Z,15.80
2018-11-10T03:52:43.048Z,14.90
2018-11-10T03:55:12.752Z,16.70
2018-11-10T03:57:42.377Z,16.23
2018-11-10T04:00:14.336Z,17.50
2018-11-10T04:02:45.163Z,15.67
2018-11-10T04:05:15.507Z,16.63
2018-11-10T04:07:45.920Z,19.73
2018-11-10T04:10:16.069Z,16.37
2018-11-10T04:12:45.820Z,18.67
2018-11-10T04:15:15.355Z,17.97
2018-11-10T04:17:45.476Z,17.73
2018-11-10T04:20:14.970Z,19.20
2018-11-10T04:22:44.780Z,18.70
2018-11-10T04:25:14.324Z,19.60
2018-11-10T04:27:44.065Z,17.90
2018-11-10T04:30:16.686Z,18.53
2018-11-10T04:32:46.475Z,16.60
2018-11-10T04:35:16.100Z,16.00
2018-11-10T04:37:45.742Z,20.20
2018-11-10T04:40:15.431Z,18.00
2018-11-10T04:42:45.145Z,18.10
2018-11-10T04:45:14.827Z,17.00
2018-11-10T04:47:44.313Z,17.17
2018-11-10T04:50:13.924Z,19.90
2018-11-10T04:52:43.584Z,19.50
2018-11-10T04:55:13.587Z,17.20
2018-11-10T04:57:43.162Z,19.10
2018-11-10T05:00:15.582Z,18.50
2018-11-10T05:02:46.092Z,16.73
2018-11-10T05:05:15.869Z,19.20
2018-11-10T05:07:45.397Z,18.20
2018-11-10T05:10:14.857Z,21.30
2018-11-10T05:12:44.497Z,18.63
2018-11-10T05:15:14.239Z,17.90
2018-11-10T05:17:43.746Z,19.27
2018-11-10T05:20:13.206Z,18.60
2018-11-10T05:22:43.032Z,17.70
2018-11-10T05:25:12.588Z,19.33
2018-11-10T05:27:42.152Z,17.07
2018-11-10T05:30:12.092Z,19.67
2018-11-10T05:32:41.782Z,18.43
2018-11-10T05:35:11.326Z,19.13
2018-11-10T05:37:40.879Z,19.10
2018-11-10T05:40:11.224Z,19.57
2018-11-10T05:42:41.450Z,21.43
2018-11-10T05:45:11.484Z,17.37
2018-11-10T05:47:40.992Z,20.10
2018-11-10T05:50:10.799Z,19.90
2018-11-10T05:52:40.490Z,19.87
2018-11-10T05:55:10.255Z,20.70
2018-11-10T05:57:40.441Z,18.83
2018-11-10T06:00:12.602Z,20.47
2018-11-10T06:02:42.374Z,19.40
2018-11-10T06:05:12.733Z,20.07
2018-11-10T06:07:42.280Z,18.40
2018-11-10T06:10:12.686Z,19.73
2018-11-10T06:12:42.586Z,20.90
2018-11-10T06:15:12.457Z,20.00
2018-11-10T06:17:42.858Z,21.47
2018-11-10T06:20:13.976Z,20.80
2018-11-10T06:22:43.755Z,22.30
2018-11-10T06:25:13.247Z,21.00
2018-11-10T06:27:42.892Z,19.43
2018-11-10T06:30:12.906Z,19.67
2018-11-10T06:32:42.621Z,19.97
2018-11-10T06:35:12.205Z,19.30
2018-11-10T06:37:42.469Z,21.50
2018-11-10T06:40:13.621Z,20.70
2018-11-10T06:42:44.577Z,20.37
2018-11-10T06:45:14.065Z,20.50
2018-11-10T06:47:43.754Z,19.47
2018-11-10T06:50:13.385Z,21.40
2018-11-10T06:52:43.007Z,21.40
2018-11-10T06:55:12.677Z,21.87
2018-11-10T06:57:42.372Z,22.30
2018-11-10T07:00:14.939Z,22.23
2018-11-10T07:02:44.804Z,19.47
2018-11-10T07:05:14.377Z,22.47
2018-11-10T07:07:44.066Z,19.00
2018-11-10T07:10:13.650Z,20.70
2018-11-10T07:12:43.419Z,23.43
2018-11-10T07:15:13.016Z,20.60
2018-11-10T07:17:42.749Z,21.00
2018-11-10T07:20:12.427Z,22.90
2018-11-10T07:22:42.036Z,24.60
2018-11-10T07:25:11.798Z,19.83
2018-11-10T07:27:41.539Z,22.20
2018-11-10T07:30:13.022Z,27.70
2018-11-10T07:32:43.355Z,25.47
2018-11-10T07:35:15.953Z,22.73
2018-11-10T07:37:45.506Z,21.57
2018-11-10T07:40:15.137Z,24.50
2018-11-10T07:42:44.810Z,24.83
2018-11-10T07:45:15.701Z,22.47
2018-11-10T07:47:46.040Z,23.43
2018-11-10T07:50:15.803Z,24.23
2018-11-10T07:52:45.602Z,25.13
2018-11-10T07:55:15.969Z,26.33
2018-11-10T07:57:45.769Z,23.97
2018-11-10T08:00:16.845Z,23.00
2018-11-10T08:02:46.525Z,26.17
2018-11-10T08:05:16.867Z,21.93
2018-11-10T08:07:46.639Z,23.50
2018-11-10T08:10:16.784Z,24.00
2018-11-10T08:12:46.413Z,24.23
2018-11-10T08:15:17.029Z,24.63
2018-11-10T08:17:47.440Z,23.17
2018-11-10T08:20:17.234Z,24.33
2018-11-10T08:22:46.894Z,26.40
2018-11-10T08:25:16.582Z,22.53
2018-11-10T08:27:47.048Z,23.10
2018-11-10T08:30:16.627Z,24.70
2018-11-10T08:32:46.321Z,25.00
2018-11-10T08:35:16.062Z,21.90
2018-11-10T08:37:45.737Z,23.30
2018-11-10T08:40:16.710Z,26.00
2018-11-10T08:42:46.529Z,22.40
2018-11-10T08:45:16.739Z,23.67
2018-11-10T08:47:46.341Z,23.53
2018-11-10T08:50:16.872Z,25.20
2018-11-10T08:52:46.482Z,23.17
2018-11-10T08:55:16.184Z,25.03
2018-11-10T08:57:45.884Z,27.67
2018-11-10T09:00:15.494Z,20.57
2018-11-10T09:02:45.100Z,23.57
2018-11-10T09:05:14.802Z,24.93
2018-11-10T09:07:44.285Z,24.07
2018-11-10T09:10:14.737Z,22.27
2018-11-10T09:12:44.457Z,21.60
2018-11-10T09:15:20.829Z,24.00
2018-11-10T09:17:50.606Z,24.87
2018-11-10T09:20:20.213Z,28.83
2018-11-10T09:22:49.981Z,30.40
2018-11-10T09:25:19.472Z,26.90
2018-11-10T09:27:49.248Z,26.00
2018-11-10T09:30:18.887Z,27.90
2018-11-10T09:32:48.595Z,24.00
2018-11-10T09:35:18.314Z,26.80
2018-11-10T09:37:48.164Z,29.10
2018-11-10T09:40:18.046Z,23.30
2018-11-10T09:42:47.905Z,23.33
2018-11-10T09:45:18.465Z,26.63
2018-11-10T09:47:48.157Z,24.87
2018-11-10T09:50:21.378Z,24.50
2018-11-10T09:52:51.405Z,21.63
2018-11-10T09:55:21.066Z,22.50
2018-11-10T09:57:50.596Z,23.67
2018-11-10T10:00:22.283Z,21.23
2018-11-10T10:02:52.086Z,22.23
2018-11-10T10:05:21.404Z,21.70
2018-11-10T10:07:51.003Z,21.60
2018-11-10T10:10:20.789Z,22.30
2018-11-10T10:12:50.504Z,21.67
2018-11-10T10:15:20.323Z,19.53
2018-11-10T10:17:50.109Z,21.07
2018-11-10T10:20:20.456Z,21.00
2018-11-10T10:22:50.694Z,19.23
2018-11-10T10:25:20.709Z,21.97
2018-11-10T10:27:50.904Z,21.23
2018-11-10T10:30:22.166Z,22.83
2018-11-10T10:32:51.691Z,23.93
2018-11-10T10:35:21.486Z,23.20
2018-11-10T10:37:51.811Z,21.20
2018-11-10T10:40:21.407Z,22.03
2018-11-10T10:42:51.056Z,21.70
2018-11-10T10:45:26.680Z,22.50
2018-11-10T10:47:57.085Z,20.47
2018-11-10T10:50:26.901Z,20.80
2018-11-10T10:52:56.592Z,21.00
2018-11-10T10:55:26.172Z,21.50
2018-11-10T10:57:55.758Z,20.47
2018-11-10T11:00:30.625Z,22.20
2018-11-10T11:03:05.598Z,29.40
2018-11-10T11:05:40.177Z,29.17
2018-11-10T11:08:09.896Z,22.30
2018-11-10T11:10:39.546Z,20.73
2018-11-10T11:13:09.472Z,21.07
2018-11-10T11:15:39.239Z,20.97
2018-11-10T11:18:08.864Z,20.43
2018-11-10T11:20:38.452Z,21.53
2018-11-10T11:23:08.073Z,20.13
2018-11-10T11:25:38.600Z,21.97
2018-11-10T11:28:08.085Z,20.37
2018-11-10T11:30:37.969Z,23.10
2018-11-10T11:33:07.727Z,19.73
2018-11-10T11:35:37.979Z,20.40
2018-11-10T11:38:08.842Z,18.10
2018-11-10T11:40:38.510Z,18.80
2018-11-10T11:43:08.226Z,18.70
2018-11-10T11:45:37.824Z,19.37
2018-11-10T11:48:07.565Z,19.13
2018-11-10T11:50:37.133Z,21.67
2018-11-10T11:53:07.495Z,21.50
2018-11-10T11:55:37.038Z,20.13
2018-11-10T11:58:07.243Z,21.03
2018-11-10T12:00:36.662Z,20.20
2018-11-10T12:03:06.929Z,21.30
2018-11-10T12:05:36.538Z,21.00
2018-11-10T12:08:06.232Z,19.90
2018-11-10T12:10:35.941Z,20.77
2018-11-10T12:13:05.765Z,19.30
2018-11-10T12:15:35.475Z,20.57
2018-11-10T12:18:05.207Z,19.77
2018-11-10T12:20:34.793Z,19.87
2018-11-10T12:23:04.916Z,19.03
2018-11-10T12:25:34.614Z,18.50
2018-11-10T12:28:04.355Z,19.87
2018-11-10T12:30:33.957Z,19.80
2018-11-10T12:33:03.551Z,20.00
2018-11-10T12:35:33.164Z,21.03
2018-11-10T12:38:02.685Z,21.20
2018-11-10T12:40:32.571Z,21.37
2018-11-10T12:43:02.256Z,20.23
2018-11-10T12:45:31.958Z,19.67
2018-11-10T12:48:01.625Z,21.57
2018-11-10T12:50:31.329Z,20.57
2018-11-10T12:53:01.469Z,20.77
2018-11-10T12:55:31.257Z,22.37
2018-11-10T12:58:00.748Z,19.63
2018-11-10T13:00:30.283Z,19.33
2018-11-10T13:03:00.057Z,21.97
2018-11-10T13:05:29.844Z,22.17
2018-11-10T13:07:59.654Z,20.17
2018-11-10T13:10:29.217Z,20.60
2018-11-10T13:12:58.850Z,17.90
2018-11-10T13:15:28.552Z,20.73
2018-11-10T13:17:58.193Z,19.13
2018-11-10T13:20:27.853Z,22.23
2018-11-10T13:22:57.455Z,20.97
2018-11-10T13:25:27.061Z,21.07
2018-11-10T13:27:56.781Z,20.30
2018-11-10T13:30:26.401Z,20.87
2018-11-10T13:32:56.874Z,21.17
2018-11-10T13:35:26.565Z,19.23
2018-11-10T13:37:56.335Z,20.33
2018-11-10T13:40:25.799Z,20.20
2018-11-10T13:42:55.345Z,19.30
2018-11-10T13:45:25.037Z,19.93
2018-11-10T13:47:54.677Z,21.30
2018-11-10T13:50:24.531Z,20.40
2018-11-10T13:52:54.393Z,19.40
2018-11-10T13:55:23.794Z,20.13
2018-11-10T13:57:53.532Z,18.80
2018-11-10T14:00:23.365Z,20.17
2018-11-10T14:02:52.856Z,21.20
2018-11-10T14:05:22.726Z,19.50
2018-11-10T14:07:52.474Z,20.37
2018-11-10T14:10:22.340Z,20.73
2018-11-10T14:12:52.020Z,18.37
2018-11-10T14:15:21.606Z,19.00
2018-11-10T14:17:51.417Z,19.50
2018-11-10T14:20:20.951Z,19.50
2018-11-10T14:22:50.640Z,19.20
2018-11-10T14:25:20.304Z,21.03
2018-11-10T14:27:49.893Z,19.70
2018-11-10T14:30:19.521Z,18.90
2018-11-10T14:32:49.272Z,20.30
2018-11-10T14:35:18.843Z,19.83
2018-11-10T14:37:48.525Z,20.13
2018-11-10T14:40:18.677Z,19.77
2018-11-10T14:42:48.381Z,21.33
2018-11-10T14:45:19.230Z,21.17
2018-11-10T14:47:48.960Z,41.50
2018-11-10T14:50:19.273Z,30.83
2018-11-10T14:52:49.095Z,21.80
2018-11-10T14:55:18.557Z,18.63
2018-11-10T14:57:48.152Z,19.50
2018-11-10T15:00:20.506Z,18.90
2018-11-10T15:02:50.056Z,20.70
2018-11-10T15:05:19.823Z,18.60
2018-11-10T15:07:49.566Z,18.87
2018-11-10T15:10:19.504Z,17.87
2018-11-10T15:12:50.030Z,17.73
2018-11-10T15:15:20.065Z,20.00
2018-11-10T15:17:49.710Z,18.60
2018-11-10T15:20:20.211Z,16.87
2018-11-10T15:22:49.973Z,16.63
2018-11-10T15:25:20.772Z,18.53
2018-11-10T15:27:50.543Z,19.93
2018-11-10T15:30:21.414Z,18.47
2018-11-10T15:32:51.406Z,17.00
2018-11-10T15:35:22.580Z,18.50
2018-11-10T15:37:52.971Z,16.60
2018-11-10T15:40:23.216Z,15.90
2018-11-10T15:42:52.696Z,16.83
2018-11-10T15:45:22.628Z,16.27
2018-11-10T15:47:52.344Z,16.40
2018-11-10T15:50:22.038Z,16.00
2018-11-10T15:52:51.615Z,15.53
2018-11-10T15:55:21.133Z,17.27
2018-11-10T15:57:50.744Z,15.83
2018-11-10T16:00:20.781Z,14.07
2018-11-10T16:02:50.545Z,15.30
2018-11-10T16:05:20.063Z,14.90
2018-11-10T16:07:49.841Z,15.73
2018-11-10T16:10:19.723Z,16.40
2018-11-10T16:12:49.423Z,14.13
2018-11-10T16:15:19.162Z,14.10
2018-11-10T16:17:49.126Z,14.17
2018-11-10T16:20:20.106Z,15.73
2018-11-10T16:22:51.177Z,13.93
2018-11-10T16:25:20.713Z,12.63
2018-11-10T16:27:50.626Z,14.50
2018-11-10T16:30:20.705Z,14.97
2018-11-10T16:32:50.893Z,12.80
2018-11-10T16:35:20.503Z,12.23
2018-11-10T16:37:50.279Z,12.50
2018-11-10T16:40:20.755Z,13.83
2018-11-10T16:42:50.836Z,13.40
2018-11-10T16:45:21.318Z,14.43
2018-11-10T16:47:50.891Z,12.90
2018-11-10T16:50:20.690Z,13.37
2018-11-10T16:52:50.336Z,12.67
2018-11-10T16:55:19.979Z,13.00
2018-11-10T16:57:49.807Z,11.53
2018-11-10T17:00:20.264Z,11.20
2018-11-10T17:02:50.255Z,12.13
2018-11-10T17:05:20.394Z,11.77
2018-11-10T17:07:49.974Z,12.60
2018-11-10T17:10:19.826Z,15.60
2018-11-10T17:12:49.480Z,12.10
2018-11-10T17:15:19.275Z,13.67
2018-11-10T17:17:48.760Z,13.27
2018-11-10T17:20:18.326Z,14.50
2018-11-10T17:22:47.980Z,11.97
2018-11-10T17:25:17.450Z,12.40
2018-11-10T17:27:47.150Z,15.40
2018-11-10T17:30:19.497Z,14.40
2018-11-10T17:32:49.040Z,12.77
2018-11-10T17:35:18.672Z,12.30
2018-11-10T17:37:48.410Z,11.90
2018-11-10T17:40:18.032Z,11.30
2018-11-10T17:42:47.589Z,11.97
2018-11-10T17:45:24.097Z,13.10
2018-11-10T17:47:53.761Z,10.47
2018-11-10T17:50:23.436Z,13.73
2018-11-10T17:52:53.510Z,13.63
2018-11-10T17:55:23.075Z,13.73
2018-11-10T17:57:52.505Z,11.83
2018-11-10T18:00:22.289Z,15.00
2018-11-10T18:02:52.020Z,22.10
2018-11-10T18:05:21.646Z,12.73
2018-11-10T18:07:51.335Z,10.83
2018-11-10T18:10:20.966Z,11.20
2018-11-10T18:12:50.561Z,10.70
2018-11-10T18:15:20.230Z,17.87
2018-11-10T18:17:49.774Z,10.73
2018-11-10T18:20:19.489Z,11.03
2018-11-10T18:22:49.077Z,11.80
2018-11-10T18:25:18.792Z,10.67
2018-11-10T18:27:48.292Z,11.30
2018-11-10T18:30:17.916Z,11.80
2018-11-10T18:32:47.689Z,11.03
2018-11-10T18:35:17.114Z,11.87
2018-11-10T18:37:46.784Z,12.03
2018-11-10T18:40:16.429Z,11.73
2018-11-10T18:42:46.921Z,10.97
2018-11-10T18:45:16.511Z,11.10
2018-11-10T18:47:46.182Z,10.90
2018-11-10T18:50:16.757Z,10.87
2018-11-10T18:52:46.431Z,11.23
2018-11-10T18:55:16.573Z,11.00
2018-11-10T18:57:46.641Z,10.20
2018-11-10T19:00:17.200Z,10.70
2018-11-10T19:02:47.025Z,11.43
2018-11-10T19:05:17.584Z,10.57
2018-11-10T19:07:47.285Z,13.77
2018-11-10T19:10:17.878Z,9.80
2018-11-10T19:12:47.622Z,10.70
2018-11-10T19:15:19.216Z,12.30
2018-11-10T19:17:48.852Z,11.23
2018-11-10T19:20:19.129Z,10.90
2018-11-10T19:22:48.809Z,11.67
2018-11-10T19:25:18.299Z,10.37
2018-11-10T19:27:48.695Z,10.00
2018-11-10T19:30:19.598Z,10.33
2018-11-10T19:32:50.101Z,11.30
2018-11-10T19:35:20.129Z,12.30
2018-11-10T19:37:49.691Z,11.00
2018-11-10T19:40:19.341Z,9.57
2018-11-10T19:42:49.171Z,11.00
2018-11-10T19:45:18.737Z,24.87
2018-11-10T19:47:48.472Z,37.77
2018-11-10T19:50:18.293Z,17.90
2018-11-10T19:52:48.547Z,17.33
2018-11-10T19:55:18.518Z,18.90
2018-11-10T19:57:48.168Z,15.63
2018-11-10T20:00:21.204Z,13.30
2018-11-10T20:02:50.827Z,13.10
2018-11-10T20:05:20.449Z,10.57
2018-11-10T20:07:50.194Z,10.40
2018-11-10T20:10:19.854Z,10.23
2018-11-10T20:12:49.709Z,10.37
2018-11-10T20:15:19.507Z,12.87
2018-11-10T20:17:49.169Z,10.20
2018-11-10T20:20:19.648Z,9.80
2018-11-10T20:22:49.232Z,9.30
2018-11-10T20:25:19.657Z,10.13
2018-11-10T20:27:49.225Z,10.30
2018-11-10T20:30:20.201Z,9.97
2018-11-10T20:32:49.829Z,10.27
2018-11-10T20:35:19.501Z,9.53
2018-11-10T20:37:49.198Z,9.93
2018-11-10T20:40:19.063Z,8.77
2018-11-10T20:42:49.673Z,9.70
2018-11-10T20:45:22.235Z,9.60
2018-11-10T20:47:51.846Z,8.80
2018-11-10T20:50:21.481Z,9.47
2018-11-10T20:52:52.224Z,8.50
2018-11-10T20:55:22.681Z,9.70
2018-11-10T20:57:53.030Z,8.73
2018-11-10T21:00:23.163Z,10.60
2018-11-10T21:02:52.758Z,9.67
2018-11-10T21:05:22.481Z,9.30
2018-11-10T21:07:52.276Z,9.87
2018-11-10T21:10:22.228Z,9.27
2018-11-10T21:12:52.057Z,10.00
2018-11-10T21:15:21.928Z,8.80
2018-11-10T21:17:51.533Z,8.30
2018-11-10T21:20:21.346Z,8.77
2018-11-10T21:22:50.944Z,9.93
2018-11-10T21:25:20.414Z,9.20
2018-11-10T21:27:50.205Z,8.77
2018-11-10T21:30:20.732Z,8.90
2018-11-10T21:32:50.637Z,9.17
2018-11-10T21:35:20.362Z,9.20
2018-11-10T21:37:49.769Z,9.77
2018-11-10T21:40:20.584Z,9.37
2018-11-10T21:42:50.378Z,9.10
2018-11-10T21:45:20.152Z,10.57
2018-11-10T21:47:49.804Z,10.03
2018-11-10T21:50:20.477Z,21.67
2018-11-10T21:52:50.182Z,16.50
2018-11-10T21:55:20.473Z,12.27
2018-11-10T21:57:50.400Z,13.00
2018-11-10T22:00:21.487Z,10.20
2018-11-10T22:02:51.353Z,11.87
2018-11-10T22:05:21.498Z,10.17
2018-11-10T22:07:51.063Z,9.40
2018-11-10T22:10:21.098Z,10.83
2018-11-10T22:12:50.894Z,12.00
2018-11-10T22:15:22.459Z,9.30
2018-11-10T22:17:52.386Z,9.37
2018-11-10T22:20:23.584Z,11.12
2018-11-10T22:22:53.406Z,10.43
2018-11-10T22:25:23.038Z,9.13
2018-11-10T22:27:53.789Z,9.00
2018-11-10T22:30:23.810Z,9.90
2018-11-10T22:32:53.522Z,9.97
2018-11-10T22:35:23.295Z,10.07
2018-11-10T22:37:52.923Z,10.47
2018-11-10T22:40:22.833Z,10.37
2018-11-10T22:42:52.637Z,9.53
2018-11-10T22:45:22.668Z,9.17
2018-11-10T22:47:52.906Z,8.80
2018-11-10T22:50:23.950Z,8.67
2018-11-10T22:52:53.526Z,10.40
2018-11-10T22:55:23.396Z,9.00
2018-11-10T22:57:53.103Z,9.50
2018-11-10T23:00:24.202Z,8.97
2018-11-10T23:02:55.340Z,9.70
2018-11-10T23:05:25.563Z,8.93
2018-11-10T23:07:55.278Z,9.30
2018-11-10T23:10:25.181Z,8.97
2018-11-10T23:12:55.812Z,7.70
2018-11-10T23:15:25.531Z,11.33
2018-11-10T23:17:55.352Z,8.10
2018-11-10T23:20:24.983Z,8.67
2018-11-10T23:22:54.746Z,9.00
2018-11-10T23:25:24.592Z,8.10
2018-11-10T23:27:54.301Z,9.67
2018-11-10T23:30:24.407Z,9.80
2018-11-10T23:32:54.090Z,8.00
2018-11-10T23:35:23.848Z,8.20
2018-11-10T23:37:53.405Z,8.50
2018-11-10T23:40:23.025Z,9.00
2018-11-10T23:42:52.647Z,10.77
2018-11-10T23:45:22.360Z,10.53
2018-11-10T23:47:52.101Z,11.20
2018-11-10T23:50:21.605Z,10.53
2018-11-10T23:52:51.324Z,10.63
2018-11-10T23:55:21.815Z,9.00
2018-11-10T23:57:51.529Z,10.97
